sensor_id;sensor_type;location;lat;lon;timestamp;pressure;altitude;pressure_sealevel;temperature;humidity
39455;BME280;25155;41.890;23.446;2023-05-29T00:02:22;91673.81;;;13.70;65.62
39455;BME280;25155;41.890;23.446;2023-05-29T00:04:50;91673.63;;;13.66;65.91
39455;BME280;25155;41.890;23.446;2023-05-29T00:07:17;91668.94;;;13.63;65.45
39455;BME280;25155;41.890;23.446;2023-05-29T00:09:45;91668.75;;;13.59;65.65
39455;BME280;25155;41.890;23.446;2023-05-29T00:12:12;91661.94;;;13.58;66.19
39455;BME280;25155;41.890;23.446;2023-05-29T00:14:40;91667.75;;;13.55;66.66
39455;BME280;25155;41.890;23.446;2023-05-29T00:17:08;91651.53;;;13.53;67.53
39455;BME280;25155;41.890;23.446;2023-05-29T00:19:36;91647.03;;;13.40;66.99
39455;BME280;25155;41.890;23.446;2023-05-29T00:22:04;91651.03;;;13.37;67.14
39455;BME280;25155;41.890;23.446;2023-05-29T00:24:31;91648.91;;;13.39;67.41
39455;BME280;25155;41.890;23.446;2023-05-29T00:26:58;91652.84;;;13.37;67.63
39455;BME280;25155;41.890;23.446;2023-05-29T00:29:27;91649.47;;;13.36;67.42
39455;BME280;25155;41.890;23.446;2023-05-29T00:31:54;91654.63;;;13.41;67.41
39455;BME280;25155;41.890;23.446;2023-05-29T00:34:22;91654.34;;;13.43;67.42
39455;BME280;25155;41.890;23.446;2023-05-29T00:36:53;91664.03;;;13.42;67.58
39455;BME280;25155;41.890;23.446;2023-05-29T00:39:21;91655.66;;;13.40;67.80
39455;BME280;25155;41.890;23.446;2023-05-29T00:41:48;91648.91;;;13.39;67.17
39455;BME280;25155;41.890;23.446;2023-05-29T00:44:17;91662.75;;;13.40;67.35
39455;BME280;25155;41.890;23.446;2023-05-29T00:46:44;91657.22;;;13.41;66.97
39455;BME280;25155;41.890;23.446;2023-05-29T00:49:13;91655.66;;;13.40;66.58
39455;BME280;25155;41.890;23.446;2023-05-29T00:51:42;91652.56;;;13.38;66.57
39455;BME280;25155;41.890;23.446;2023-05-29T00:54:16;91650.78;;;13.34;66.60
39455;BME280;25155;41.890;23.446;2023-05-29T00:56:44;91653.69;;;13.32;66.53
39455;BME280;25155;41.890;23.446;2023-05-29T00:59:11;91658.13;;;13.32;66.82
39455;BME280;25155;41.890;23.446;2023-05-29T01:01:39;91652.41;;;13.29;66.52
39455;BME280;25155;41.890;23.446;2023-05-29T01:04:09;91653.75;;;13.27;66.82
39455;BME280;25155;41.890;23.446;2023-05-29T01:06:39;91647.47;;;13.28;66.59
39455;BME280;25155;41.890;23.446;2023-05-29T01:09:06;91648.03;;;13.25;66.36
39455;BME280;25155;41.890;23.446;2023-05-29T01:11:43;91643.34;;;13.22;66.93
39455;BME280;25155;41.890;23.446;2023-05-29T01:14:20;91622.16;;;13.04;67.06
39455;BME280;25155;41.890;23.446;2023-05-29T01:16:55;91633.19;;;13.01;66.80
39455;BME280;25155;41.890;23.446;2023-05-29T01:19:46;91634.88;;;12.92;67.48
39455;BME280;25155;41.890;23.446;2023-05-29T01:22:27;91624.00;;;12.85;67.09
39455;BME280;25155;41.890;23.446;2023-05-29T01:25:08;91625.41;;;12.77;67.66
39455;BME280;25155;41.890;23.446;2023-05-29T01:27:41;91626.25;;;12.72;67.68
39455;BME280;25155;41.890;23.446;2023-05-29T01:30:09;91628.53;;;12.60;68.67
39455;BME280;25155;41.890;23.446;2023-05-29T01:32:39;91641.13;;;12.58;68.78
39455;BME280;25155;41.890;23.446;2023-05-29T01:35:10;91631.22;;;12.55;68.75
39455;BME280;25155;41.890;23.446;2023-05-29T01:37:38;91635.66;;;12.54;68.48
39455;BME280;25155;41.890;23.446;2023-05-29T01:40:06;91631.78;;;12.52;68.82
39455;BME280;25155;41.890;23.446;2023-05-29T01:42:34;91620.31;;;12.48;68.11
39455;BME280;25155;41.890;23.446;2023-05-29T01:45:03;91622.06;;;12.52;68.42
39455;BME280;25155;41.890;23.446;2023-05-29T01:47:32;91616.34;;;12.50;68.37
39455;BME280;25155;41.890;23.446;2023-05-29T01:50:00;91620.53;;;12.51;68.43
39455;BME280;25155;41.890;23.446;2023-05-29T01:52:29;91615.03;;;12.53;68.26
39455;BME280;25155;41.890;23.446;2023-05-29T01:54:56;91617.84;;;12.57;68.30
39455;BME280;25155;41.890;23.446;2023-05-29T01:57:24;91618.63;;;12.57;68.01
39455;BME280;25155;41.890;23.446;2023-05-29T01:59:52;91622.28;;;12.56;68.61
39455;BME280;25155;41.890;23.446;2023-05-29T02:02:22;91618.19;;;12.50;68.22
39455;BME280;25155;41.890;23.446;2023-05-29T02:04:50;91627.59;;;12.51;68.25
39455;BME280;25155;41.890;23.446;2023-05-29T02:07:17;91625.25;;;12.49;68.64
39455;BME280;25155;41.890;23.446;2023-05-29T02:09:45;91622.63;;;12.49;68.10
39455;BME280;25155;41.890;23.446;2023-05-29T02:12:12;91619.53;;;12.47;68.38
39455;BME280;25155;41.890;23.446;2023-05-29T02:14:40;91628.22;;;12.43;68.81
39455;BME280;25155;41.890;23.446;2023-05-29T02:17:07;91637.41;;;12.40;68.26
39455;BME280;25155;41.890;23.446;2023-05-29T02:19:36;91641.34;;;12.37;68.46
39455;BME280;25155;41.890;23.446;2023-05-29T02:22:04;91637.41;;;12.40;68.58
39455;BME280;25155;41.890;23.446;2023-05-29T02:24:31;91634.59;;;12.36;68.36
39455;BME280;25155;41.890;23.446;2023-05-29T02:26:58;91640.38;;;12.33;68.13
39455;BME280;25155;41.890;23.446;2023-05-29T02:29:26;91644.84;;;12.33;68.80
39455;BME280;25155;41.890;23.446;2023-05-29T02:31:53;91638.31;;;12.30;68.68
39455;BME280;25155;41.890;23.446;2023-05-29T02:34:21;91634.69;;;12.26;68.97
39455;BME280;25155;41.890;23.446;2023-05-29T02:36:51;91637.16;;;12.17;68.92
39455;BME280;25155;41.890;23.446;2023-05-29T02:39:20;91634.38;;;12.09;68.98
39455;BME280;25155;41.890;23.446;2023-05-29T02:41:47;91629.69;;;12.06;68.58
39455;BME280;25155;41.890;23.446;2023-05-29T02:44:14;91630.47;;;12.06;68.90
39455;BME280;25155;41.890;23.446;2023-05-29T02:46:41;91635.19;;;12.04;68.57
39455;BME280;25155;41.890;23.446;2023-05-29T02:49:08;91632.59;;;12.04;68.71
39455;BME280;25155;41.890;23.446;2023-05-29T02:51:35;91632.78;;;11.84;70.43
39455;BME280;25155;41.890;23.446;2023-05-29T02:54:04;91636.34;;;11.69;70.26
39455;BME280;25155;41.890;23.446;2023-05-29T02:56:32;91641.03;;;11.67;70.46
39455;BME280;25155;41.890;23.446;2023-05-29T02:59:00;91635.25;;;11.70;69.92
39455;BME280;25155;41.890;23.446;2023-05-29T03:01:27;91646.22;;;11.72;69.54
39455;BME280;25155;41.890;23.446;2023-05-29T03:03:54;91638.91;;;11.74;69.88
39455;BME280;25155;41.890;23.446;2023-05-29T03:06:22;91638.34;;;11.77;69.32
39455;BME280;25155;41.890;23.446;2023-05-29T03:08:49;91640.69;;;11.78;69.61
39455;BME280;25155;41.890;23.446;2023-05-29T03:11:18;91648.00;;;11.76;69.26
39455;BME280;25155;41.890;23.446;2023-05-29T03:13:47;91651.16;;;11.73;69.79
39455;BME280;25155;41.890;23.446;2023-05-29T03:16:15;91642.81;;;11.71;69.65
39455;BME280;25155;41.890;23.446;2023-05-29T03:18:42;91647.28;;;11.71;69.36
39455;BME280;25155;41.890;23.446;2023-05-29T03:21:09;91646.50;;;11.70;69.12
39455;BME280;25155;41.890;23.446;2023-05-29T03:23:37;91655.66;;;11.68;69.23
39455;BME280;25155;41.890;23.446;2023-05-29T03:26:04;91662.47;;;11.69;69.21
39455;BME280;25155;41.890;23.446;2023-05-29T03:28:33;91671.34;;;11.68;69.03
39455;BME280;25155;41.890;23.446;2023-05-29T03:31:01;91665.84;;;11.69;68.92
39455;BME280;25155;41.890;23.446;2023-05-29T03:33:28;91667.69;;;11.69;68.80
39455;BME280;25155;41.890;23.446;2023-05-29T03:35:56;91668.72;;;11.68;69.14
39455;BME280;25155;41.890;23.446;2023-05-29T03:38:23;91673.69;;;11.69;68.65
39455;BME280;25155;41.890;23.446;2023-05-29T03:40:50;91678.13;;;11.69;69.00
39455;BME280;25155;41.890;23.446;2023-05-29T03:43:17;91674.44;;;11.70;68.59
39455;BME280;25155;41.890;23.446;2023-05-29T03:45:46;91673.19;;;11.67;68.87
39455;BME280;25155;41.890;23.446;2023-05-29T03:48:13;91673.91;;;11.73;68.99
39455;BME280;25155;41.890;23.446;2023-05-29T03:50:40;91679.63;;;11.75;68.58
39455;BME280;25155;41.890;23.446;2023-05-29T03:53:08;91677.59;;;11.72;69.23
39455;BME280;25155;41.890;23.446;2023-05-29T03:55:35;91688.06;;;11.67;70.54
39455;BME280;25155;41.890;23.446;2023-05-29T03:58:02;91686.34;;;11.57;71.71
39455;BME280;25155;41.890;23.446;2023-05-29T04:00:29;91695.22;;;11.56;71.32
39455;BME280;25155;41.890;23.446;2023-05-29T04:02:58;91698.59;;;11.56;71.80
39455;BME280;25155;41.890;23.446;2023-05-29T04:05:25;91701.44;;;11.60;71.26
39455;BME280;25155;41.890;23.446;2023-05-29T04:07:52;91704.31;;;11.63;71.25
39455;BME280;25155;41.890;23.446;2023-05-29T04:10:20;91701.13;;;11.67;70.85
39455;BME280;25155;41.890;23.446;2023-05-29T04:12:47;91700.28;;;11.71;71.17
39455;BME280;25155;41.890;23.446;2023-05-29T04:15:15;91691.69;;;11.71;71.10
39455;BME280;25155;41.890;23.446;2023-05-29T04:17:42;91693.00;;;11.68;71.65
39455;BME280;25155;41.890;23.446;2023-05-29T04:20:12;91693.53;;;11.70;72.00
39455;BME280;25155;41.890;23.446;2023-05-29T04:22:39;91686.91;;;11.78;71.92
39455;BME280;25155;41.890;23.446;2023-05-29T04:25:07;91686.69;;;11.74;73.44
39455;BME280;25155;41.890;23.446;2023-05-29T04:27:34;91693.81;;;11.69;74.52
39455;BME280;25155;41.890;23.446;2023-05-29T04:30:04;91686.97;;;11.73;73.95
39455;BME280;25155;41.890;23.446;2023-05-29T04:32:32;91682.50;;;11.78;73.85
39455;BME280;25155;41.890;23.446;2023-05-29T04:35:00;91686.59;;;11.85;75.04
39455;BME280;25155;41.890;23.446;2023-05-29T04:37:30;91686.28;;;11.91;74.86
39455;BME280;25155;41.890;23.446;2023-05-29T04:40:03;91687.53;;;11.99;74.90
39455;BME280;25155;41.890;23.446;2023-05-29T04:42:35;91694.00;;;12.07;76.55
39455;BME280;25155;41.890;23.446;2023-05-29T04:45:02;91699.19;;;12.12;77.44
39455;BME280;25155;41.890;23.446;2023-05-29T04:47:29;91696.22;;;12.18;77.20
39455;BME280;25155;41.890;23.446;2023-05-29T04:49:58;91696.94;;;12.24;77.87
39455;BME280;25155;41.890;23.446;2023-05-29T04:52:26;91695.84;;;12.30;77.64
39455;BME280;25155;41.890;23.446;2023-05-29T04:54:56;91697.13;;;12.33;77.30
39455;BME280;25155;41.890;23.446;2023-05-29T04:57:24;91690.72;;;12.44;76.65
39455;BME280;25155;41.890;23.446;2023-05-29T04:59:51;91693.78;;;12.51;76.76
39455;BME280;25155;41.890;23.446;2023-05-29T05:02:18;91695.53;;;12.56;77.33
39455;BME280;25155;41.890;23.446;2023-05-29T05:04:45;91686.56;;;12.62;77.02
39455;BME280;25155;41.890;23.446;2023-05-29T05:07:12;91688.56;;;12.70;76.60
39455;BME280;25155;41.890;23.446;2023-05-29T05:09:41;91686.41;;;12.78;76.78
39455;BME280;25155;41.890;23.446;2023-05-29T05:12:10;91705.41;;;12.83;77.44
39455;BME280;25155;41.890;23.446;2023-05-29T05:14:38;91716.31;;;12.90;78.24
39455;BME280;25155;41.890;23.446;2023-05-29T05:17:06;91719.72;;;12.91;78.95
39455;BME280;25155;41.890;23.446;2023-05-29T05:19:33;91721.41;;;12.82;77.84
39455;BME280;25155;41.890;23.446;2023-05-29T05:22:00;91722.03;;;12.73;77.08
39455;BME280;25155;41.890;23.446;2023-05-29T05:24:28;91728.84;;;12.74;76.98
39455;BME280;25155;41.890;23.446;2023-05-29T05:26:55;91726.16;;;12.80;77.18
39455;BME280;25155;41.890;23.446;2023-05-29T05:29:23;91725.59;;;12.83;77.13
39455;BME280;25155;41.890;23.446;2023-05-29T05:31:51;91725.53;;;12.88;76.87
39455;BME280;25155;41.890;23.446;2023-05-29T05:34:18;91732.22;;;12.94;76.64
39455;BME280;25155;41.890;23.446;2023-05-29T05:36:46;91730.63;;;12.98;76.49
39455;BME280;25155;41.890;23.446;2023-05-29T05:39:15;91724.81;;;13.01;76.33
39455;BME280;25155;41.890;23.446;2023-05-29T05:41:42;91732.13;;;13.04;75.73
39455;BME280;25155;41.890;23.446;2023-05-29T05:44:09;91727.88;;;13.08;75.98
39455;BME280;25155;41.890;23.446;2023-05-29T05:46:38;91729.72;;;13.08;75.80
39455;BME280;25155;41.890;23.446;2023-05-29T05:49:06;91727.31;;;13.11;75.46
39455;BME280;25155;41.890;23.446;2023-05-29T05:51:33;91722.34;;;13.10;76.99
39455;BME280;25155;41.890;23.446;2023-05-29T05:54:01;91726.53;;;13.11;76.57
39455;BME280;25155;41.890;23.446;2023-05-29T05:56:28;91723.28;;;13.19;76.62
39455;BME280;25155;41.890;23.446;2023-05-29T05:58:55;91730.06;;;13.20;76.92
39455;BME280;25155;41.890;23.446;2023-05-29T06:01:23;91735.81;;;13.22;76.65
39455;BME280;25155;41.890;23.446;2023-05-29T06:03:52;91732.59;;;13.25;77.06
39455;BME280;25155;41.890;23.446;2023-05-29T06:06:19;91734.63;;;13.34;76.69
39455;BME280;25155;41.890;23.446;2023-05-29T06:08:46;91724.56;;;13.41;76.50
39455;BME280;25155;41.890;23.446;2023-05-29T06:11:14;91730.78;;;13.45;76.88
39455;BME280;25155;41.890;23.446;2023-05-29T06:13:43;91730.22;;;13.48;76.87
39455;BME280;25155;41.890;23.446;2023-05-29T06:16:10;91728.28;;;13.54;77.20
39455;BME280;25155;41.890;23.446;2023-05-29T06:18:37;91725.34;;;13.60;77.40
39455;BME280;25155;41.890;23.446;2023-05-29T06:21:05;91726.22;;;13.70;77.12
39455;BME280;25155;41.890;23.446;2023-05-29T06:23:33;91731.81;;;13.82;77.18
39455;BME280;25155;41.890;23.446;2023-05-29T06:26:01;91730.38;;;13.90;76.87
39455;BME280;25155;41.890;23.446;2023-05-29T06:28:28;91721.06;;;13.97;76.59
39455;BME280;25155;41.890;23.446;2023-05-29T06:30:56;91732.75;;;14.05;76.79
39455;BME280;25155;41.890;23.446;2023-05-29T06:33:23;91734.19;;;14.11;76.81
39455;BME280;25155;41.890;23.446;2023-05-29T06:35:50;91733.34;;;14.16;76.88
39455;BME280;25155;41.890;23.446;2023-05-29T06:38:18;91733.25;;;14.21;76.67
39455;BME280;25155;41.890;23.446;2023-05-29T06:40:45;91735.41;;;14.33;76.34
39455;BME280;25155;41.890;23.446;2023-05-29T06:43:12;91742.03;;;14.44;75.95
39455;BME280;25155;41.890;23.446;2023-05-29T06:45:40;91743.41;;;14.55;75.60
39455;BME280;25155;41.890;23.446;2023-05-29T06:48:07;91749.25;;;14.66;75.69
39455;BME280;25155;41.890;23.446;2023-05-29T06:50:34;91736.22;;;14.75;74.83
39455;BME280;25155;41.890;23.446;2023-05-29T06:53:01;91739.34;;;14.77;73.94
39455;BME280;25155;41.890;23.446;2023-05-29T06:55:30;91739.34;;;14.77;73.52
39455;BME280;25155;41.890;23.446;2023-05-29T06:57:57;91738.66;;;14.85;73.61
39455;BME280;25155;41.890;23.446;2023-05-29T07:00:24;91740.22;;;14.86;73.10
39455;BME280;25155;41.890;23.446;2023-05-29T07:02:51;91751.97;;;14.89;74.16
39455;BME280;25155;41.890;23.446;2023-05-29T07:05:19;91739.59;;;14.89;73.99
39455;BME280;25155;41.890;23.446;2023-05-29T07:07:46;91731.25;;;14.87;73.47
39455;BME280;25155;41.890;23.446;2023-05-29T07:10:13;91741.16;;;14.90;73.32
39455;BME280;25155;41.890;23.446;2023-05-29T07:12:41;91746.63;;;14.94;72.81
39455;BME280;25155;41.890;23.446;2023-05-29T07:15:09;91737.09;;;14.98;72.43
39455;BME280;25155;41.890;23.446;2023-05-29T07:17:36;91746.03;;;15.11;71.49
39455;BME280;25155;41.890;23.446;2023-05-29T07:20:04;91750.38;;;15.16;70.83
39455;BME280;25155;41.890;23.446;2023-05-29T07:22:33;91741.72;;;15.15;69.44
39455;BME280;25155;41.890;23.446;2023-05-29T07:25:01;91739.00;;;15.20;69.80
39455;BME280;25155;41.890;23.446;2023-05-29T07:27:28;91746.41;;;15.18;69.58
39455;BME280;25155;41.890;23.446;2023-05-29T07:29:56;91748.44;;;15.21;69.92
39455;BME280;25155;41.890;23.446;2023-05-29T07:32:23;91741.41;;;15.30;69.32
39455;BME280;25155;41.890;23.446;2023-05-29T07:34:50;91745.94;;;15.39;69.26
39455;BME280;25155;41.890;23.446;2023-05-29T07:37:18;91751.31;;;15.47;68.97
39455;BME280;25155;41.890;23.446;2023-05-29T07:39:45;91742.91;;;15.45;67.90
39455;BME280;25155;41.890;23.446;2023-05-29T07:42:12;91747.00;;;15.52;67.28
39455;BME280;25155;41.890;23.446;2023-05-29T07:44:39;91744.84;;;15.54;66.85
39455;BME280;25155;41.890;23.446;2023-05-29T07:47:10;91751.38;;;15.56;67.39
39455;BME280;25155;41.890;23.446;2023-05-29T07:49:37;91752.31;;;15.60;66.41
39455;BME280;25155;41.890;23.446;2023-05-29T07:52:05;91752.50;;;15.64;66.75
39455;BME280;25155;41.890;23.446;2023-05-29T07:54:32;91747.13;;;15.69;66.63
39455;BME280;25155;41.890;23.446;2023-05-29T07:57:00;91762.00;;;15.74;66.20
39455;BME280;25155;41.890;23.446;2023-05-29T07:59:28;91758.81;;;15.77;66.24
39455;BME280;25155;41.890;23.446;2023-05-29T08:01:55;91759.31;;;15.79;66.26
39455;BME280;25155;41.890;23.446;2023-05-29T08:04:25;91765.16;;;15.76;66.13
39455;BME280;25155;41.890;23.446;2023-05-29T08:06:52;91763.56;;;15.75;66.11
39455;BME280;25155;41.890;23.446;2023-05-29T08:09:19;91763.00;;;15.78;66.27
39455;BME280;25155;41.890;23.446;2023-05-29T08:11:46;91763.94;;;15.82;66.59
39455;BME280;25155;41.890;23.446;2023-05-29T08:14:14;91765.97;;;15.85;66.25
39455;BME280;25155;41.890;23.446;2023-05-29T08:16:41;91764.06;;;15.77;65.46
39455;BME280;25155;41.890;23.446;2023-05-29T08:19:09;91766.69;;;15.77;66.11
39455;BME280;25155;41.890;23.446;2023-05-29T08:21:37;91769.19;;;15.82;66.26
39455;BME280;25155;41.890;23.446;2023-05-29T08:24:11;91769.69;;;15.84;66.64
39455;BME280;25155;41.890;23.446;2023-05-29T08:26:38;91767.38;;;15.82;66.34
39455;BME280;25155;41.890;23.446;2023-05-29T08:29:05;91775.09;;;15.79;67.36
39455;BME280;25155;41.890;23.446;2023-05-29T08:31:32;91769.19;;;15.82;68.39
39455;BME280;25155;41.890;23.446;2023-05-29T08:33:59;91775.66;;;15.76;68.04
39455;BME280;25155;41.890;23.446;2023-05-29T08:36:27;91769.81;;;15.79;68.45
39455;BME280;25155;41.890;23.446;2023-05-29T08:38:55;91777.09;;;15.82;68.53
39455;BME280;25155;41.890;23.446;2023-05-29T08:41:25;91778.38;;;15.84;68.99
39455;BME280;25155;41.890;23.446;2023-05-29T08:43:56;91772.22;;;15.89;68.47
39455;BME280;25155;41.890;23.446;2023-05-29T08:46:26;91771.63;;;15.92;67.44
39455;BME280;25155;41.890;23.446;2023-05-29T08:48:57;91771.84;;;15.82;68.43
39455;BME280;25155;41.890;23.446;2023-05-29T08:51:27;91771.25;;;15.85;68.27
39455;BME280;25155;41.890;23.446;2023-05-29T08:53:58;91764.38;;;15.98;69.44
39455;BME280;25155;41.890;23.446;2023-05-29T08:56:27;91771.41;;;16.11;67.86
39455;BME280;25155;41.890;23.446;2023-05-29T08:58:54;91766.19;;;16.20;66.46
39455;BME280;25155;41.890;23.446;2023-05-29T09:01:25;91770.88;;;16.23;66.46
39455;BME280;25155;41.890;23.446;2023-05-29T09:03:52;91767.69;;;16.35;65.68
39455;BME280;25155;41.890;23.446;2023-05-29T09:06:22;91764.00;;;16.45;65.27
39455;BME280;25155;41.890;23.446;2023-05-29T09:08:51;91761.09;;;16.46;64.22
39455;BME280;25155;41.890;23.446;2023-05-29T09:11:20;91757.56;;;16.51;64.52
39455;BME280;25155;41.890;23.446;2023-05-29T09:13:48;91765.16;;;16.52;63.48
39455;BME280;25155;41.890;23.446;2023-05-29T09:16:16;91754.19;;;16.59;64.04
39455;BME280;25155;41.890;23.446;2023-05-29T09:18:44;91752.69;;;16.75;62.50
39455;BME280;25155;41.890;23.446;2023-05-29T09:21:25;91752.25;;;16.82;64.29
39455;BME280;25155;41.890;23.446;2023-05-29T09:23:54;91751.84;;;16.97;63.67
39455;BME280;25155;41.890;23.446;2023-05-29T09:26:22;91751.44;;;17.13;63.53
39455;BME280;25155;41.890;23.446;2023-05-29T09:28:49;91748.38;;;17.28;62.71
39455;BME280;25155;41.890;23.446;2023-05-29T09:31:17;91751.63;;;17.34;61.04
39455;BME280;25155;41.890;23.446;2023-05-29T09:33:48;91751.47;;;17.39;59.37
39455;BME280;25155;41.890;23.446;2023-05-29T09:36:22;91751.03;;;17.55;59.74
39455;BME280;25155;41.890;23.446;2023-05-29T09:38:50;91746.84;;;17.80;60.48
39455;BME280;25155;41.890;23.446;2023-05-29T09:41:23;91749.81;;;17.96;59.30
39455;BME280;25155;41.890;23.446;2023-05-29T09:43:51;91743.13;;;18.16;59.26
39455;BME280;25155;41.890;23.446;2023-05-29T09:46:19;91742.91;;;18.30;57.98
39455;BME280;25155;41.890;23.446;2023-05-29T09:48:46;91740.72;;;18.32;57.31
39455;BME280;25155;41.890;23.446;2023-05-29T09:51:20;91736.22;;;18.41;57.18
39455;BME280;25155;41.890;23.446;2023-05-29T09:53:48;91742.41;;;18.54;56.07
39455;BME280;25155;41.890;23.446;2023-05-29T09:56:17;91732.59;;;18.54;54.48
39455;BME280;25155;41.890;23.446;2023-05-29T09:58:46;91735.69;;;18.56;54.13
39455;BME280;25155;41.890;23.446;2023-05-29T10:01:14;91735.66;;;18.65;55.85
39455;BME280;25155;41.890;23.446;2023-05-29T10:03:42;91739.63;;;18.80;55.69
39455;BME280;25155;41.890;23.446;2023-05-29T10:06:11;91729.25;;;18.84;53.08
39455;BME280;25155;41.890;23.446;2023-05-29T10:08:45;91716.81;;;18.75;52.31
39455;BME280;25155;41.890;23.446;2023-05-29T10:11:14;91718.84;;;18.70;53.62
39455;BME280;25155;41.890;23.446;2023-05-29T10:13:48;91720.78;;;18.60;53.10
39455;BME280;25155;41.890;23.446;2023-05-29T10:16:19;91723.50;;;18.73;54.42
39455;BME280;25155;41.890;23.446;2023-05-29T10:18:50;91718.94;;;18.91;56.47
39455;BME280;25155;41.890;23.446;2023-05-29T10:21:21;91709.38;;;19.07;53.99
39455;BME280;25155;41.890;23.446;2023-05-29T10:23:50;91711.78;;;19.21;54.86
39455;BME280;25155;41.890;23.446;2023-05-29T10:26:20;91707.78;;;19.36;52.50
39455;BME280;25155;41.890;23.446;2023-05-29T10:28:55;91696.13;;;19.37;52.51
39455;BME280;25155;41.890;23.446;2023-05-29T10:31:30;91701.09;;;19.60;54.93
39455;BME280;25155;41.890;23.446;2023-05-29T10:34:11;91693.44;;;20.00;54.85
39455;BME280;25155;41.890;23.446;2023-05-29T10:36:44;91691.88;;;20.33;53.44
39455;BME280;25155;41.890;23.446;2023-05-29T10:39:13;91691.78;;;20.41;50.48
39455;BME280;25155;41.890;23.446;2023-05-29T10:41:40;91684.97;;;20.53;51.57
39455;BME280;25155;41.890;23.446;2023-05-29T10:44:39;91686.28;;;20.59;51.02
39455;BME280;25155;41.890;23.446;2023-05-29T10:47:07;91678.47;;;20.75;48.61
39455;BME280;25155;41.890;23.446;2023-05-29T10:49:36;91685.66;;;20.87;49.52
39455;BME280;25155;41.890;23.446;2023-05-29T10:52:04;91680.59;;;20.94;48.01
39455;BME280;25155;41.890;23.446;2023-05-29T10:54:51;91682.69;;;20.76;47.24
39455;BME280;25155;41.890;23.446;2023-05-29T10:57:21;91671.84;;;20.69;49.33
39455;BME280;25155;41.890;23.446;2023-05-29T11:00:06;91674.75;;;20.18;49.70
39455;BME280;25155;41.890;23.446;2023-05-29T11:02:39;91674.31;;;20.28;49.57
39455;BME280;25155;41.890;23.446;2023-05-29T11:05:23;91667.69;;;20.22;48.47
39455;BME280;25155;41.890;23.446;2023-05-29T11:08:01;91663.94;;;20.23;49.31
39455;BME280;25155;41.890;23.446;2023-05-29T11:10:56;91654.75;;;20.08;49.14
39455;BME280;25155;41.890;23.446;2023-05-29T11:13:25;91656.66;;;20.20;49.72
39455;BME280;25155;41.890;23.446;2023-05-29T11:16:14;91659.94;;;20.04;51.54
39455;BME280;25155;41.890;23.446;2023-05-29T11:18:47;91661.25;;;20.10;52.52
39455;BME280;25155;41.890;23.446;2023-05-29T11:21:30;91651.91;;;20.25;50.72
39455;BME280;25155;41.890;23.446;2023-05-29T11:23:59;91641.91;;;20.31;47.82
39455;BME280;25155;41.890;23.446;2023-05-29T11:26:30;91641.88;;;20.19;49.37
39455;BME280;25155;41.890;23.446;2023-05-29T11:28:59;91645.06;;;20.12;50.32
39455;BME280;25155;41.890;23.446;2023-05-29T11:31:28;91642.41;;;20.12;49.10
39455;BME280;25155;41.890;23.446;2023-05-29T11:34:00;91644.09;;;20.29;49.61
39455;BME280;25155;41.890;23.446;2023-05-29T11:36:30;91637.56;;;20.39;48.79
39455;BME280;25155;41.890;23.446;2023-05-29T11:38:58;91638.59;;;20.34;47.85
39455;BME280;25155;41.890;23.446;2023-05-29T11:41:25;91632.19;;;20.48;48.86
39455;BME280;25155;41.890;23.446;2023-05-29T11:43:59;91634.41;;;20.58;48.25
39455;BME280;25155;41.890;23.446;2023-05-29T11:46:29;91626.25;;;20.75;50.89
39455;BME280;25155;41.890;23.446;2023-05-29T11:48:58;91620.47;;;20.98;50.30
39455;BME280;25155;41.890;23.446;2023-05-29T11:51:26;91626.19;;;21.12;47.78
39455;BME280;25155;41.890;23.446;2023-05-29T11:53:53;91628.72;;;21.21;47.77
39455;BME280;25155;41.890;23.446;2023-05-29T11:56:23;91620.59;;;21.42;49.19
39455;BME280;25155;41.890;23.446;2023-05-29T11:58:52;91630.66;;;21.49;47.98
39455;BME280;25155;41.890;23.446;2023-05-29T12:01:22;91624.69;;;21.39;47.40
39455;BME280;25155;41.890;23.446;2023-05-29T12:03:52;91628.00;;;21.36;47.11
39455;BME280;25155;41.890;23.446;2023-05-29T12:06:31;91624.53;;;21.20;46.39
39455;BME280;25155;41.890;23.446;2023-05-29T12:08:59;91621.56;;;21.09;45.85
39455;BME280;25155;41.890;23.446;2023-05-29T12:11:26;91617.78;;;21.23;45.88
39455;BME280;25155;41.890;23.446;2023-05-29T12:13:57;91618.84;;;21.34;46.05
39455;BME280;25155;41.890;23.446;2023-05-29T12:16:25;91612.50;;;21.10;47.33
39455;BME280;25155;41.890;23.446;2023-05-29T12:18:54;91610.63;;;21.51;46.05
39455;BME280;25155;41.890;23.446;2023-05-29T12:21:22;91608.31;;;21.78;46.67
39455;BME280;25155;41.890;23.446;2023-05-29T12:23:52;91597.13;;;22.01;47.87
39455;BME280;25155;41.890;23.446;2023-05-29T12:26:22;91595.53;;;22.28;48.75
39455;BME280;25155;41.890;23.446;2023-05-29T12:28:50;91589.19;;;22.48;47.40
39455;BME280;25155;41.890;23.446;2023-05-29T12:31:26;91581.13;;;22.45;43.90
39455;BME280;25155;41.890;23.446;2023-05-29T12:33:59;91581.25;;;22.33;45.39
39455;BME280;25155;41.890;23.446;2023-05-29T12:36:26;91585.09;;;22.51;48.10
39455;BME280;25155;41.890;23.446;2023-05-29T12:38:55;91565.94;;;22.77;47.85
39455;BME280;25155;41.890;23.446;2023-05-29T12:41:24;91574.25;;;22.95;45.60
39455;BME280;25155;41.890;23.446;2023-05-29T12:43:53;91560.78;;;23.04;45.26
39455;BME280;25155;41.890;23.446;2023-05-29T12:46:23;91563.03;;;23.21;45.41
39455;BME280;25155;41.890;23.446;2023-05-29T12:48:52;91563.69;;;23.34;43.12
39455;BME280;25155;41.890;23.446;2023-05-29T12:51:24;91553.75;;;23.31;42.43
39455;BME280;25155;41.890;23.446;2023-05-29T12:53:52;91566.19;;;23.47;44.65
39455;BME280;25155;41.890;23.446;2023-05-29T12:56:21;91556.66;;;23.65;44.81
39455;BME280;25155;41.890;23.446;2023-05-29T12:58:50;91550.75;;;23.75;43.74
39455;BME280;25155;41.890;23.446;2023-05-29T13:01:18;91543.47;;;23.92;44.76